WMKK METAR and TAF | Updated Today

WMKK METAR

Kuala Lumpur International Airport

Observation time: 14 min. ago

WMKK 200630Z VRB05KT 9999 VCSH FEW017CB SCT018 32/26 Q1008 NOSIG

Need help? Read our tutorial on how to read METARs or read the parsed version below.

Kuala Lumpur International Airport (WMKK) METAR

  • Weather conditions on Fri, 20 May 2022 06:30:00 +0000 (14 min. ago):
  • Present conditions: In the vicinity, showers of
  • Clouds: A few at 518 meters, cumulonimbus; scattered at 549 meters
  • Visibility: Greater than 10 km
  • Wind: Variable at 5 knots
  • Temperature: 32 celsius
  • Dew point: 26 celsius
  • Pressure: 1008 millibars
  • Remarks: None


Useful to know...

WMKK TAF

Kuala Lumpur International Airport

TAF WMKK 200438Z 2006/2112 33005KT 9999 FEW018 TEMPO 2006/2010 VRB02KT 5000 TSRA FEW010 FEW017CB
Observation time: 2:06 hr. ago
Need help? Read our tutorial on how to read TAFs or read the parsed version below.

Parsed version of TAF for Kuala Lumpur International Airport (WMKK)

  • From 20 May at 06:00 UTC, to day 21 of the month at 12:00 UTC
  • Clouds: A few at 549 meters
  • Visibility: Greater than 10 km
  • Wind: 330 degrees at 5
  • Expected to arise temporarily, from 20 May at 06:00 UTC, to day 20 of the month at 10:00 UTC
  • Clouds: A few at 305 meters; a few at 518 meters, cumulonimbus
  • Visibility: 5000 meters
  • Wind: Variable at 2
  • Other: Thunderstorms rain